sensor_id;sensor_type;location;lat;lon;timestamp;pressure;altitude;pressure_sealevel;temperature;humidity
35224;BME280;21367;51.930;8.112;2023-04-07T00:03:55;100882.78;;;6.45;100.00
35224;BME280;21367;51.930;8.112;2023-04-07T00:09:00;100887.44;;;6.38;100.00
35224;BME280;21367;51.930;8.112;2023-04-07T00:14:08;100880.38;;;6.34;100.00
35224;BME280;21367;51.930;8.112;2023-04-07T00:19:12;100868.44;;;6.76;100.00
35224;BME280;21367;51.930;8.112;2023-04-07T00:24:16;100873.28;;;6.43;100.00
35224;BME280;21367;51.930;8.112;2023-04-07T00:29:22;100864.31;;;6.49;100.00
35224;BME280;21367;51.930;8.112;2023-04-07T00:34:27;100859.44;;;6.67;100.00
35224;BME280;21367;51.930;8.112;2023-04-07T00:39:31;100855.59;;;6.74;100.00
35224;BME280;21367;51.930;8.112;2023-04-07T00:44:39;100856.78;;;6.38;100.00
35224;BME280;21367;51.930;8.112;2023-04-07T00:49:43;100851.69;;;6.38;100.00
35224;BME280;21367;51.930;8.112;2023-04-07T00:54:47;100840.78;;;6.68;100.00
35224;BME280;21367;51.930;8.112;2023-04-07T00:59:54;100849.41;;;6.42;100.00
35224;BME280;21367;51.930;8.112;2023-04-07T01:05:07;100835.16;;;6.18;100.00
35224;BME280;21367;51.930;8.112;2023-04-07T01:10:20;100837.81;;;6.47;100.00
35224;BME280;21367;51.930;8.112;2023-04-07T01:15:38;100826.78;;;6.62;100.00
35224;BME280;21367;51.930;8.112;2023-04-07T01:20:44;100828.78;;;6.53;100.00
35224;BME280;21367;51.930;8.112;2023-04-07T01:26:05;100822.50;;;6.47;100.00
35224;BME280;21367;51.930;8.112;2023-04-07T01:31:13;100824.81;;;6.30;100.00
35224;BME280;21367;51.930;8.112;2023-04-07T01:36:18;100821.28;;;5.99;100.00
35224;BME280;21367;51.930;8.112;2023-04-07T01:41:24;100825.91;;;6.20;100.00
35224;BME280;21367;51.930;8.112;2023-04-07T01:46:33;100831.38;;;6.39;100.00
35224;BME280;21367;51.930;8.112;2023-04-07T01:51:37;100821.00;;;6.23;100.00
35224;BME280;21367;51.930;8.112;2023-04-07T01:56:42;100821.88;;;6.52;100.00
35224;BME280;21367;51.930;8.112;2023-04-07T02:01:50;100809.34;;;6.41;100.00
35224;BME280;21367;51.930;8.112;2023-04-07T02:06:59;100816.19;;;6.28;100.00
35224;BME280;21367;51.930;8.112;2023-04-07T02:12:13;100813.09;;;6.46;100.00
35224;BME280;21367;51.930;8.112;2023-04-07T02:17:33;100813.16;;;6.20;100.00
35224;BME280;21367;51.930;8.112;2023-04-07T02:22:40;100815.03;;;6.22;100.00
35224;BME280;21367;51.930;8.112;2023-04-07T02:27:45;100815.78;;;6.35;100.00
35224;BME280;21367;51.930;8.112;2023-04-07T02:32:53;100811.34;;;6.17;100.00
35224;BME280;21367;51.930;8.112;2023-04-07T02:37:58;100817.69;;;6.24;100.00
35224;BME280;21367;51.930;8.112;2023-04-07T02:43:03;100819.97;;;5.79;100.00
35224;BME280;21367;51.930;8.112;2023-04-07T02:48:11;100815.69;;;5.65;100.00
35224;BME280;21367;51.930;8.112;2023-04-07T02:53:21;100819.97;;;6.06;100.00
35224;BME280;21367;51.930;8.112;2023-04-07T02:58:39;100824.28;;;6.07;100.00
35224;BME280;21367;51.930;8.112;2023-04-07T03:04:18;100817.34;;;6.33;100.00
35224;BME280;21367;51.930;8.112;2023-04-07T03:09:26;100824.09;;;6.17;100.00
35224;BME280;21367;51.930;8.112;2023-04-07T03:14:46;100821.66;;;6.06;100.00
35224;BME280;21367;51.930;8.112;2023-04-07T03:20:00;100824.22;;;6.34;100.00
35224;BME280;21367;51.930;8.112;2023-04-07T03:25:23;100826.06;;;6.08;100.00
35224;BME280;21367;51.930;8.112;2023-04-07T03:30:38;100820.06;;;6.08;100.00
35224;BME280;21367;51.930;8.112;2023-04-07T03:35:53;100813.22;;;6.07;100.00
35224;BME280;21367;51.930;8.112;2023-04-07T03:41:16;100814.69;;;6.59;100.00
35224;BME280;21367;51.930;8.112;2023-04-07T03:46:32;100810.59;;;6.20;100.00
35224;BME280;21367;51.930;8.112;2023-04-07T03:52:06;100821.53;;;6.04;100.00
35224;BME280;21367;51.930;8.112;2023-04-07T03:57:22;100822.78;;;6.24;100.00
35224;BME280;21367;51.930;8.112;2023-04-07T04:02:39;100826.94;;;5.95;100.00
35224;BME280;21367;51.930;8.112;2023-04-07T04:07:55;100828.06;;;5.99;100.00
35224;BME280;21367;51.930;8.112;2023-04-07T04:13:04;100827.78;;;6.22;100.00
35224;BME280;21367;51.930;8.112;2023-04-07T04:18:11;100830.25;;;6.21;100.00
35224;BME280;21367;51.930;8.112;2023-04-07T04:23:21;100830.59;;;6.40;100.00
35224;BME280;21367;51.930;8.112;2023-04-07T04:28:28;100825.88;;;6.05;100.00
35224;BME280;21367;51.930;8.112;2023-04-07T04:33:37;100834.88;;;6.41;100.00
35224;BME280;21367;51.930;8.112;2023-04-07T04:38:52;100837.72;;;5.91;100.00
35224;BME280;21367;51.930;8.112;2023-04-07T04:44:11;100845.00;;;5.98;100.00
35224;BME280;21367;51.930;8.112;2023-04-07T04:49:21;100848.63;;;6.15;100.00
35224;BME280;21367;51.930;8.112;2023-04-07T04:54:30;100854.81;;;5.92;100.00
35224;BME280;21367;51.930;8.112;2023-04-07T04:59:34;100850.97;;;5.86;100.00
35224;BME280;21367;51.930;8.112;2023-04-07T05:04:42;100860.91;;;5.68;100.00
35224;BME280;21367;51.930;8.112;2023-04-07T05:10:05;100864.00;;;6.30;100.00
35224;BME280;21367;51.930;8.112;2023-04-07T05:15:17;100865.69;;;5.90;100.00
35224;BME280;21367;51.930;8.112;2023-04-07T05:20:30;100857.84;;;6.13;100.00
35224;BME280;21367;51.930;8.112;2023-04-07T05:25:47;100871.47;;;6.55;100.00
35224;BME280;21367;51.930;8.112;2023-04-07T05:30:52;100871.03;;;5.93;100.00
35224;BME280;21367;51.930;8.112;2023-04-07T05:36:02;100877.09;;;6.08;100.00
35224;BME280;21367;51.930;8.112;2023-04-07T05:41:11;100875.34;;;5.94;100.00
35224;BME280;21367;51.930;8.112;2023-04-07T05:46:18;100880.69;;;5.85;100.00
35224;BME280;21367;51.930;8.112;2023-04-07T05:51:29;100878.25;;;6.13;100.00
35224;BME280;21367;51.930;8.112;2023-04-07T05:56:42;100885.44;;;6.06;100.00
35224;BME280;21367;51.930;8.112;2023-04-07T06:01:58;100886.19;;;5.78;100.00
35224;BME280;21367;51.930;8.112;2023-04-07T06:07:03;100894.66;;;6.03;100.00
35224;BME280;21367;51.930;8.112;2023-04-07T06:12:11;100908.69;;;6.10;100.00
35224;BME280;21367;51.930;8.112;2023-04-07T06:17:18;100902.91;;;5.99;100.00
35224;BME280;21367;51.930;8.112;2023-04-07T06:22:25;100904.84;;;6.17;100.00
35224;BME280;21367;51.930;8.112;2023-04-07T06:27:32;100908.84;;;6.26;100.00
35224;BME280;21367;51.930;8.112;2023-04-07T06:32:39;100908.13;;;6.42;100.00
35224;BME280;21367;51.930;8.112;2023-04-07T06:37:46;100908.66;;;6.37;100.00
35224;BME280;21367;51.930;8.112;2023-04-07T06:43:03;100907.03;;;7.08;100.00
35224;BME280;21367;51.930;8.112;2023-04-07T06:48:25;100910.81;;;6.72;100.00
35224;BME280;21367;51.930;8.112;2023-04-07T06:53:35;100926.81;;;6.69;100.00
35224;BME280;21367;51.930;8.112;2023-04-07T06:58:55;100930.72;;;7.06;100.00
35224;BME280;21367;51.930;8.112;2023-04-07T07:04:03;100935.78;;;6.63;100.00
35224;BME280;21367;51.930;8.112;2023-04-07T07:09:08;100934.78;;;6.74;100.00
35224;BME280;21367;51.930;8.112;2023-04-07T07:14:16;100943.75;;;6.82;100.00
35224;BME280;21367;51.930;8.112;2023-04-07T07:19:26;100940.25;;;7.08;100.00
35224;BME280;21367;51.930;8.112;2023-04-07T07:24:33;100942.09;;;6.83;100.00
35224;BME280;21367;51.930;8.112;2023-04-07T07:29:43;100950.41;;;6.93;100.00
35224;BME280;21367;51.930;8.112;2023-04-07T07:34:53;100955.56;;;7.08;100.00
35224;BME280;21367;51.930;8.112;2023-04-07T07:40:12;100963.25;;;6.80;100.00
35224;BME280;21367;51.930;8.112;2023-04-07T07:45:40;100972.00;;;6.99;100.00
35224;BME280;21367;51.930;8.112;2023-04-07T07:51:02;100964.75;;;7.19;100.00
35224;BME280;21367;51.930;8.112;2023-04-07T07:56:07;100987.47;;;7.43;100.00
35224;BME280;21367;51.930;8.112;2023-04-07T08:01:14;100988.53;;;7.91;100.00
35224;BME280;21367;51.930;8.112;2023-04-07T08:06:18;100978.16;;;8.34;100.00
35224;BME280;21367;51.930;8.112;2023-04-07T08:11:22;100984.28;;;8.06;100.00
35224;BME280;21367;51.930;8.112;2023-04-07T08:16:29;100996.84;;;8.33;100.00
35224;BME280;21367;51.930;8.112;2023-04-07T08:21:33;100996.97;;;8.49;100.00
35224;BME280;21367;51.930;8.112;2023-04-07T08:26:37;101000.41;;;8.50;100.00
35224;BME280;21367;51.930;8.112;2023-04-07T08:31:44;100993.03;;;8.56;100.00
35224;BME280;21367;51.930;8.112;2023-04-07T08:36:48;101002.28;;;8.69;100.00
35224;BME280;21367;51.930;8.112;2023-04-07T08:41:52;101003.66;;;8.18;100.00
35224;BME280;21367;51.930;8.112;2023-04-07T08:47:00;101008.63;;;8.92;100.00
35224;BME280;21367;51.930;8.112;2023-04-07T08:52:08;101003.75;;;9.29;100.00
35224;BME280;21367;51.930;8.112;2023-04-07T08:57:14;101015.91;;;9.66;100.00
35224;BME280;21367;51.930;8.112;2023-04-07T09:02:22;101021.72;;;8.65;100.00
35224;BME280;21367;51.930;8.112;2023-04-07T09:07:26;101026.84;;;9.13;100.00
35224;BME280;21367;51.930;8.112;2023-04-07T09:12:32;101031.09;;;9.12;100.00
35224;BME280;21367;51.930;8.112;2023-04-07T09:17:39;101029.66;;;8.70;100.00
35224;BME280;21367;51.930;8.112;2023-04-07T09:22:43;101031.75;;;8.77;100.00
35224;BME280;21367;51.930;8.112;2023-04-07T09:27:56;101036.44;;;9.00;100.00
35224;BME280;21367;51.930;8.112;2023-04-07T09:33:04;101041.75;;;9.20;100.00
35224;BME280;21367;51.930;8.112;2023-04-07T09:38:09;101037.59;;;9.22;100.00
35224;BME280;21367;51.930;8.112;2023-04-07T09:43:15;101039.25;;;8.74;100.00
35224;BME280;21367;51.930;8.112;2023-04-07T09:48:22;101038.88;;;9.46;99.70
35224;BME280;21367;51.930;8.112;2023-04-07T09:53:40;101036.91;;;9.75;95.80
35224;BME280;21367;51.930;8.112;2023-04-07T09:58:46;101044.16;;;9.84;93.62
35224;BME280;21367;51.930;8.112;2023-04-07T10:03:54;101050.81;;;9.30;95.05
35224;BME280;21367;51.930;8.112;2023-04-07T10:08:58;101042.19;;;9.62;95.68
35224;BME280;21367;51.930;8.112;2023-04-07T10:14:03;101047.97;;;9.58;92.87
35224;BME280;21367;51.930;8.112;2023-04-07T10:19:10;101050.69;;;10.11;89.75
35224;BME280;21367;51.930;8.112;2023-04-07T10:24:22;101057.19;;;9.05;95.67
35224;BME280;21367;51.930;8.112;2023-04-07T10:29:34;101068.50;;;9.58;95.15
35224;BME280;21367;51.930;8.112;2023-04-07T10:34:58;101068.03;;;9.16;95.82
35224;BME280;21367;51.930;8.112;2023-04-07T10:40:27;101072.75;;;9.73;92.53
35224;BME280;21367;51.930;8.112;2023-04-07T10:45:52;101074.34;;;10.22;91.24
35224;BME280;21367;51.930;8.112;2023-04-07T10:51:18;101087.78;;;9.66;90.21
35224;BME280;21367;51.930;8.112;2023-04-07T10:56:24;101091.94;;;9.47;94.81
35224;BME280;21367;51.930;8.112;2023-04-07T11:01:28;101093.75;;;9.34;95.61
35224;BME280;21367;51.930;8.112;2023-04-07T11:06:35;101096.47;;;9.20;95.95
35224;BME280;21367;51.930;8.112;2023-04-07T11:11:49;101095.38;;;9.64;92.50
35224;BME280;21367;51.930;8.112;2023-04-07T11:16:53;101103.22;;;10.18;89.92
35224;BME280;21367;51.930;8.112;2023-04-07T11:22:15;101104.41;;;10.07;88.70
35224;BME280;21367;51.930;8.112;2023-04-07T11:27:20;101106.09;;;10.24;88.87
35224;BME280;21367;51.930;8.112;2023-04-07T11:32:24;101111.13;;;10.05;91.46
35224;BME280;21367;51.930;8.112;2023-04-07T11:37:32;101109.31;;;10.36;86.28
35224;BME280;21367;51.930;8.112;2023-04-07T11:42:37;101105.88;;;10.19;84.14
35224;BME280;21367;51.930;8.112;2023-04-07T11:47:42;101104.56;;;10.62;82.40
35224;BME280;21367;51.930;8.112;2023-04-07T11:52:49;101109.31;;;10.36;83.79
35224;BME280;21367;51.930;8.112;2023-04-07T11:57:52;101113.19;;;10.62;85.15
35224;BME280;21367;51.930;8.112;2023-04-07T12:03:08;101116.25;;;10.91;82.44
35224;BME280;21367;51.930;8.112;2023-04-07T12:08:17;101129.81;;;10.35;83.20
35224;BME280;21367;51.930;8.112;2023-04-07T12:13:21;101125.03;;;10.42;80.44
35224;BME280;21367;51.930;8.112;2023-04-07T12:18:25;101138.63;;;10.58;81.03
35224;BME280;21367;51.930;8.112;2023-04-07T12:23:33;101138.44;;;10.37;82.10
35224;BME280;21367;51.930;8.112;2023-04-07T12:28:37;101139.31;;;10.54;81.27
35224;BME280;21367;51.930;8.112;2023-04-07T12:33:41;101141.47;;;11.18;78.61
35224;BME280;21367;51.930;8.112;2023-04-07T12:38:48;101141.06;;;11.46;76.52
35224;BME280;21367;51.930;8.112;2023-04-07T12:43:52;101158.09;;;11.24;80.66
35224;BME280;21367;51.930;8.112;2023-04-07T12:48:56;101150.19;;;11.96;75.94
35224;BME280;21367;51.930;8.112;2023-04-07T12:54:03;101147.59;;;11.57;74.37
35224;BME280;21367;51.930;8.112;2023-04-07T12:59:07;101144.03;;;11.35;77.05
35224;BME280;21367;51.930;8.112;2023-04-07T13:04:11;101151.06;;;11.02;78.05
35224;BME280;21367;51.930;8.112;2023-04-07T13:09:20;101140.91;;;11.43;76.98
35224;BME280;21367;51.930;8.112;2023-04-07T13:14:24;101140.47;;;11.90;76.14
35224;BME280;21367;51.930;8.112;2023-04-07T13:19:28;101154.56;;;11.79;75.36
35224;BME280;21367;51.930;8.112;2023-04-07T13:24:36;101146.03;;;12.40;72.26
35224;BME280;21367;51.930;8.112;2023-04-07T13:29:40;101156.19;;;12.16;74.58
35224;BME280;21367;51.930;8.112;2023-04-07T13:34:44;101155.06;;;11.15;77.33
35224;BME280;21367;51.930;8.112;2023-04-07T13:39:51;101152.38;;;12.27;72.83
35224;BME280;21367;51.930;8.112;2023-04-07T13:44:54;101162.44;;;12.01;75.33
35224;BME280;21367;51.930;8.112;2023-04-07T13:49:59;101158.06;;;11.42;72.47
35224;BME280;21367;51.930;8.112;2023-04-07T13:55:07;101162.25;;;12.16;72.19
35224;BME280;21367;51.930;8.112;2023-04-07T14:00:12;101154.53;;;12.58;71.63
35224;BME280;21367;51.930;8.112;2023-04-07T14:05:17;101148.53;;;12.80;71.36
35224;BME280;21367;51.930;8.112;2023-04-07T14:10:26;101149.75;;;12.67;70.79
35224;BME280;21367;51.930;8.112;2023-04-07T14:15:30;101146.72;;;12.78;71.94
35224;BME280;21367;51.930;8.112;2023-04-07T14:20:34;101145.25;;;12.84;68.32
35224;BME280;21367;51.930;8.112;2023-04-07T14:25:40;101151.22;;;13.04;68.52
35224;BME280;21367;51.930;8.112;2023-04-07T14:30:44;101154.41;;;12.76;68.40
35224;BME280;21367;51.930;8.112;2023-04-07T14:35:49;101153.28;;;12.48;69.83
35224;BME280;21367;51.930;8.112;2023-04-07T14:40:55;101159.31;;;12.09;71.38
35224;BME280;21367;51.930;8.112;2023-04-07T14:46:00;101157.00;;;12.15;70.31
35224;BME280;21367;51.930;8.112;2023-04-07T14:51:09;101154.16;;;13.58;67.04
35224;BME280;21367;51.930;8.112;2023-04-07T14:56:16;101150.72;;;14.57;63.91
35224;BME280;21367;51.930;8.112;2023-04-07T15:01:21;101150.28;;;16.15;59.32
35224;BME280;21367;51.930;8.112;2023-04-07T15:06:25;101147.06;;;16.25;59.40
35224;BME280;21367;51.930;8.112;2023-04-07T15:11:31;101152.63;;;17.51;54.24
35224;BME280;21367;51.930;8.112;2023-04-07T15:16:35;101159.84;;;18.07;53.39
35224;BME280;21367;51.930;8.112;2023-04-07T15:21:39;101159.09;;;18.64;53.16
35224;BME280;21367;51.930;8.112;2023-04-07T15:26:46;101161.22;;;16.71;55.63
35224;BME280;21367;51.930;8.112;2023-04-07T15:31:49;101165.13;;;16.21;57.00
35224;BME280;21367;51.930;8.112;2023-04-07T15:36:53;101172.50;;;14.89;58.88
35224;BME280;21367;51.930;8.112;2023-04-07T15:42:00;101166.41;;;14.62;61.33
35224;BME280;21367;51.930;8.112;2023-04-07T15:47:04;101171.50;;;14.34;61.35
35224;BME280;21367;51.930;8.112;2023-04-07T15:52:08;101166.09;;;14.52;60.73
35224;BME280;21367;51.930;8.112;2023-04-07T15:57:16;101176.31;;;15.88;59.51
35224;BME280;21367;51.930;8.112;2023-04-07T16:02:21;101170.13;;;17.19;55.83
35224;BME280;21367;51.930;8.112;2023-04-07T16:07:25;101170.94;;;17.98;52.10
35224;BME280;21367;51.930;8.112;2023-04-07T16:12:32;101171.56;;;17.85;53.48
35224;BME280;21367;51.930;8.112;2023-04-07T16:17:36;101173.09;;;18.20;50.65
35224;BME280;21367;51.930;8.112;2023-04-07T16:22:41;101185.22;;;17.76;51.78
35224;BME280;21367;51.930;8.112;2023-04-07T16:27:50;101186.16;;;17.01;52.48
35224;BME280;21367;51.930;8.112;2023-04-07T16:32:55;101197.63;;;15.78;56.75
35224;BME280;21367;51.930;8.112;2023-04-07T16:38:00;101198.13;;;15.66;56.68
35224;BME280;21367;51.930;8.112;2023-04-07T16:43:08;101206.47;;;15.00;58.05
35224;BME280;21367;51.930;8.112;2023-04-07T16:48:12;101208.75;;;14.64;58.66
35224;BME280;21367;51.930;8.112;2023-04-07T16:53:17;101215.59;;;13.89;61.07
35224;BME280;21367;51.930;8.112;2023-04-07T16:58:23;101222.47;;;13.89;62.92
35224;BME280;21367;51.930;8.112;2023-04-07T17:03:27;101226.16;;;13.96;62.74
35224;BME280;21367;51.930;8.112;2023-04-07T17:08:34;101238.88;;;13.45;64.33
35224;BME280;21367;51.930;8.112;2023-04-07T17:13:41;101241.78;;;13.31;64.83
35224;BME280;21367;51.930;8.112;2023-04-07T17:18:44;101242.53;;;13.08;65.95
35224;BME280;21367;51.930;8.112;2023-04-07T17:23:49;101248.50;;;13.28;65.01
35224;BME280;21367;51.930;8.112;2023-04-07T17:28:57;101259.69;;;12.65;66.60
35224;BME280;21367;51.930;8.112;2023-04-07T17:34:01;101263.47;;;12.73;67.00
35224;BME280;21367;51.930;8.112;2023-04-07T17:39:06;101277.59;;;12.62;66.70
35224;BME280;21367;51.930;8.112;2023-04-07T17:44:12;101280.69;;;12.34;68.03
35224;BME280;21367;51.930;8.112;2023-04-07T17:49:17;101279.75;;;12.13;69.83
35224;BME280;21367;51.930;8.112;2023-04-07T17:54:21;101287.06;;;12.03;70.07
35224;BME280;21367;51.930;8.112;2023-04-07T17:59:28;101294.38;;;11.76;71.61
35224;BME280;21367;51.930;8.112;2023-04-07T18:04:32;101300.34;;;11.57;72.13
35224;BME280;21367;51.930;8.112;2023-04-07T18:09:36;101306.06;;;11.16;73.70
35224;BME280;21367;51.930;8.112;2023-04-07T18:14:45;101314.28;;;11.09;75.15
35224;BME280;21367;51.930;8.112;2023-04-07T18:19:50;101321.56;;;10.83;75.59
35224;BME280;21367;51.930;8.112;2023-04-07T18:24:54;101329.25;;;10.65;75.89
35224;BME280;21367;51.930;8.112;2023-04-07T18:30:06;101333.56;;;10.34;77.00
35224;BME280;21367;51.930;8.112;2023-04-07T18:35:12;101343.38;;;10.41;77.83
35224;BME280;21367;51.930;8.112;2023-04-07T18:40:17;101351.59;;;10.19;78.83
35224;BME280;21367;51.930;8.112;2023-04-07T18:45:25;101356.31;;;10.11;79.56
35224;BME280;21367;51.930;8.112;2023-04-07T18:50:29;101361.38;;;9.79;80.47
35224;BME280;21367;51.930;8.112;2023-04-07T18:55:34;101372.81;;;9.69;80.88
35224;BME280;21367;51.930;8.112;2023-04-07T19:00:41;101383.09;;;9.54;82.07
35224;BME280;21367;51.930;8.112;2023-04-07T19:05:46;101377.53;;;9.46;82.30
35224;BME280;21367;51.930;8.112;2023-04-07T19:10:50;101386.28;;;9.20;82.84
35224;BME280;21367;51.930;8.112;2023-04-07T19:15:57;101389.34;;;9.00;83.72
35224;BME280;21367;51.930;8.112;2023-04-07T19:21:01;101389.31;;;8.85;84.59
35224;BME280;21367;51.930;8.112;2023-04-07T19:26:05;101395.84;;;8.80;84.67
35224;BME280;21367;51.930;8.112;2023-04-07T19:31:12;101403.25;;;8.75;84.45
35224;BME280;21367;51.930;8.112;2023-04-07T19:36:16;101409.56;;;8.52;85.87
35224;BME280;21367;51.930;8.112;2023-04-07T19:41:21;101416.25;;;8.50;87.71
35224;BME280;21367;51.930;8.112;2023-04-07T19:46:27;101418.13;;;8.40;88.48
35224;BME280;21367;51.930;8.112;2023-04-07T19:51:33;101415.38;;;8.23;87.87
35224;BME280;21367;51.930;8.112;2023-04-07T19:56:37;101418.97;;;8.12;88.30
35224;BME280;21367;51.930;8.112;2023-04-07T20:01:44;101416.59;;;8.02;88.94
35224;BME280;21367;51.930;8.112;2023-04-07T20:06:48;101425.84;;;8.00;88.29
35224;BME280;21367;51.930;8.112;2023-04-07T20:11:52;101422.72;;;7.91;88.26
35224;BME280;21367;51.930;8.112;2023-04-07T20:16:59;101427.44;;;7.71;89.02
35224;BME280;21367;51.930;8.112;2023-04-07T20:22:05;101426.69;;;7.34;90.28
35224;BME280;21367;51.930;8.112;2023-04-07T20:27:09;101434.31;;;7.59;89.80
35224;BME280;21367;51.930;8.112;2023-04-07T20:32:18;101434.19;;;7.44;90.69
35224;BME280;21367;51.930;8.112;2023-04-07T20:37:22;101437.44;;;7.55;88.79
35224;BME280;21367;51.930;8.112;2023-04-07T20:42:26;101443.53;;;7.44;89.77
35224;BME280;21367;51.930;8.112;2023-04-07T20:47:33;101443.44;;;7.17;91.27
35224;BME280;21367;51.930;8.112;2023-04-07T20:52:37;101450.91;;;7.14;90.80
35224;BME280;21367;51.930;8.112;2023-04-07T20:57:43;101450.13;;;7.15;89.94
35224;BME280;21367;51.930;8.112;2023-04-07T21:02:51;101447.25;;;7.10;90.85
35224;BME280;21367;51.930;8.112;2023-04-07T21:07:55;101466.00;;;6.86;91.58
35224;BME280;21367;51.930;8.112;2023-04-07T21:12:59;101462.91;;;6.90;90.87
35224;BME280;21367;51.930;8.112;2023-04-07T21:18:06;101462.16;;;6.79;91.37
35224;BME280;21367;51.930;8.112;2023-04-07T21:23:10;101467.94;;;6.77;92.40
35224;BME280;21367;51.930;8.112;2023-04-07T21:28:14;101476.28;;;6.74;92.27
35224;BME280;21367;51.930;8.112;2023-04-07T21:33:21;101478.00;;;6.38;92.80
35224;BME280;21367;51.930;8.112;2023-04-07T21:38:25;101478.44;;;6.56;91.44
35224;BME280;21367;51.930;8.112;2023-04-07T21:43:29;101487.69;;;6.31;91.80
35224;BME280;21367;51.930;8.112;2023-04-07T21:48:37;101489.47;;;6.20;93.06
35224;BME280;21367;51.930;8.112;2023-04-07T21:53:41;101493.25;;;6.25;91.76
35224;BME280;21367;51.930;8.112;2023-04-07T21:58:45;101491.69;;;6.15;91.41
35224;BME280;21367;51.930;8.112;2023-04-07T22:03:54;101494.25;;;6.03;92.81
35224;BME280;21367;51.930;8.112;2023-04-07T22:08:59;101494.78;;;5.99;92.14
35224;BME280;21367;51.930;8.112;2023-04-07T22:14:03;101494.97;;;5.91;93.05
35224;BME280;21367;51.930;8.112;2023-04-07T22:19:09;101501.94;;;5.82;94.17
35224;BME280;21367;51.930;8.112;2023-04-07T22:24:13;101510.03;;;5.76;93.93
35224;BME280;21367;51.930;8.112;2023-04-07T22:29:18;101513.47;;;5.65;94.18
35224;BME280;21367;51.930;8.112;2023-04-07T22:34:26;101506.50;;;5.40;95.92
35224;BME280;21367;51.930;8.112;2023-04-07T22:39:30;101503.66;;;5.47;95.67
35224;BME280;21367;51.930;8.112;2023-04-07T22:44:34;101512.97;;;5.47;95.47
35224;BME280;21367;51.930;8.112;2023-04-07T22:49:41;101520.63;;;5.47;94.72
35224;BME280;21367;51.930;8.112;2023-04-07T22:54:45;101534.19;;;5.36;94.90
35224;BME280;21367;51.930;8.112;2023-04-07T22:59:49;101533.53;;;5.38;96.14
35224;BME280;21367;51.930;8.112;2023-04-07T23:04:56;101540.22;;;4.60;97.15
35224;BME280;21367;51.930;8.112;2023-04-07T23:10:00;101545.09;;;5.11;96.67
35224;BME280;21367;51.930;8.112;2023-04-07T23:15:05;101551.94;;;5.12;95.51
35224;BME280;21367;51.930;8.112;2023-04-07T23:20:13;101552.47;;;5.08;94.39
35224;BME280;21367;51.930;8.112;2023-04-07T23:25:17;101562.44;;;5.05;93.36
35224;BME280;21367;51.930;8.112;2023-04-07T23:30:21;101566.38;;;5.01;92.31
35224;BME280;21367;51.930;8.112;2023-04-07T23:35:28;101567.94;;;4.99;92.55
35224;BME280;21367;51.930;8.112;2023-04-07T23:40:33;101570.88;;;4.94;92.36
35224;BME280;21367;51.930;8.112;2023-04-07T23:45:36;101567.56;;;4.95;91.17
35224;BME280;21367;51.930;8.112;2023-04-07T23:50:44;101575.75;;;4.91;90.68
35224;BME280;21367;51.930;8.112;2023-04-07T23:55:48;101581.00;;;4.82;90.86
